sensor_id;sensor_type;location;lat;lon;timestamp;P1;durP1;ratioP1;P2;durP2;ratioP2
60030;SDS011;45901;47.600;9.890;2023-06-22T00:01:46;11.30;;;4.43;;
60030;SDS011;45901;47.600;9.890;2023-06-22T00:04:13;15.83;;;5.43;;
60030;SDS011;45901;47.600;9.890;2023-06-22T00:06:41;16.83;;;4.97;;
60030;SDS011;45901;47.600;9.890;2023-06-22T00:09:08;14.57;;;4.77;;
60030;SDS011;45901;47.600;9.890;2023-06-22T00:11:35;14.20;;;4.80;;
60030;SDS011;45901;47.600;9.890;2023-06-22T00:14:04;12.33;;;4.13;;
60030;SDS011;45901;47.600;9.890;2023-06-22T00:16:31;13.37;;;5.03;;
60030;SDS011;45901;47.600;9.890;2023-06-22T00:18:59;20.53;;;5.33;;
60030;SDS011;45901;47.600;9.890;2023-06-22T00:21:27;13.00;;;5.37;;
60030;SDS011;45901;47.600;9.890;2023-06-22T00:23:55;14.53;;;4.43;;
60030;SDS011;45901;47.600;9.890;2023-06-22T00:26:23;11.03;;;5.00;;
60030;SDS011;45901;47.600;9.890;2023-06-22T00:28:51;15.23;;;5.70;;
60030;SDS011;45901;47.600;9.890;2023-06-22T00:31:19;15.40;;;5.47;;
60030;SDS011;45901;47.600;9.890;2023-06-22T00:33:47;12.40;;;5.03;;
60030;SDS011;45901;47.600;9.890;2023-06-22T00:36:15;12.37;;;5.10;;
60030;SDS011;45901;47.600;9.890;2023-06-22T00:38:44;12.90;;;4.60;;
60030;SDS011;45901;47.600;9.890;2023-06-22T00:41:11;12.47;;;5.40;;
60030;SDS011;45901;47.600;9.890;2023-06-22T00:43:38;13.17;;;5.10;;
60030;SDS011;45901;47.600;9.890;2023-06-22T00:46:07;8.57;;;4.60;;
60030;SDS011;45901;47.600;9.890;2023-06-22T00:48:35;10.60;;;4.83;;
60030;SDS011;45901;47.600;9.890;2023-06-22T00:51:03;10.53;;;5.00;;
60030;SDS011;45901;47.600;9.890;2023-06-22T00:53:30;14.87;;;4.73;;
60030;SDS011;45901;47.600;9.890;2023-06-22T00:56:00;13.37;;;4.37;;
60030;SDS011;45901;47.600;9.890;2023-06-22T00:58:28;13.23;;;5.23;;
60030;SDS011;45901;47.600;9.890;2023-06-22T01:00:56;10.00;;;4.83;;
60030;SDS011;45901;47.600;9.890;2023-06-22T01:03:23;9.67;;;4.73;;
60030;SDS011;45901;47.600;9.890;2023-06-22T01:05:52;11.97;;;4.97;;
60030;SDS011;45901;47.600;9.890;2023-06-22T01:08:29;10.07;;;4.67;;
60030;SDS011;45901;47.600;9.890;2023-06-22T01:11:07;7.77;;;4.47;;
60030;SDS011;45901;47.600;9.890;2023-06-22T01:13:44;13.67;;;4.30;;
60030;SDS011;45901;47.600;9.890;2023-06-22T01:16:17;10.77;;;5.00;;
60030;SDS011;45901;47.600;9.890;2023-06-22T01:18:51;15.50;;;6.13;;
60030;SDS011;45901;47.600;9.890;2023-06-22T01:21:23;10.10;;;4.73;;
60030;SDS011;45901;47.600;9.890;2023-06-22T01:23:56;12.47;;;4.80;;
60030;SDS011;45901;47.600;9.890;2023-06-22T01:26:37;11.10;;;4.80;;
60030;SDS011;45901;47.600;9.890;2023-06-22T01:29:10;14.10;;;4.97;;
60030;SDS011;45901;47.600;9.890;2023-06-22T01:31:40;10.67;;;4.77;;
60030;SDS011;45901;47.600;9.890;2023-06-22T01:34:11;11.83;;;5.57;;
60030;SDS011;45901;47.600;9.890;2023-06-22T01:36:39;14.67;;;5.10;;
60030;SDS011;45901;47.600;9.890;2023-06-22T01:39:08;10.47;;;4.87;;
60030;SDS011;45901;47.600;9.890;2023-06-22T01:41:37;10.20;;;5.00;;
60030;SDS011;45901;47.600;9.890;2023-06-22T01:44:05;12.87;;;5.47;;
60030;SDS011;45901;47.600;9.890;2023-06-22T01:46:35;10.80;;;4.77;;
60030;SDS011;45901;47.600;9.890;2023-06-22T01:49:03;13.90;;;5.07;;
60030;SDS011;45901;47.600;9.890;2023-06-22T01:51:32;15.00;;;5.00;;
60030;SDS011;45901;47.600;9.890;2023-06-22T01:54:00;12.03;;;4.90;;
60030;SDS011;45901;47.600;9.890;2023-06-22T01:56:28;16.23;;;4.87;;
60030;SDS011;45901;47.600;9.890;2023-06-22T01:59:09;10.70;;;4.83;;
60030;SDS011;45901;47.600;9.890;2023-06-22T02:01:48;11.40;;;4.60;;
60030;SDS011;45901;47.600;9.890;2023-06-22T02:04:21;14.30;;;4.97;;
60030;SDS011;45901;47.600;9.890;2023-06-22T02:06:55;12.60;;;4.87;;
60030;SDS011;45901;47.600;9.890;2023-06-22T02:09:26;14.27;;;4.63;;
60030;SDS011;45901;47.600;9.890;2023-06-22T02:11:56;13.80;;;5.33;;
60030;SDS011;45901;47.600;9.890;2023-06-22T02:14:26;10.97;;;5.17;;
60030;SDS011;45901;47.600;9.890;2023-06-22T02:16:55;8.33;;;4.37;;
60030;SDS011;45901;47.600;9.890;2023-06-22T02:19:24;12.13;;;5.23;;
60030;SDS011;45901;47.600;9.890;2023-06-22T02:21:52;12.07;;;4.90;;
60030;SDS011;45901;47.600;9.890;2023-06-22T02:24:20;14.00;;;5.63;;
60030;SDS011;45901;47.600;9.890;2023-06-22T02:26:49;8.77;;;4.93;;
60030;SDS011;45901;47.600;9.890;2023-06-22T02:29:16;14.40;;;4.97;;
60030;SDS011;45901;47.600;9.890;2023-06-22T02:31:43;9.77;;;4.67;;
60030;SDS011;45901;47.600;9.890;2023-06-22T02:34:12;8.67;;;4.87;;
60030;SDS011;45901;47.600;9.890;2023-06-22T02:36:43;8.93;;;4.37;;
60030;SDS011;45901;47.600;9.890;2023-06-22T02:39:17;11.17;;;4.83;;
60030;SDS011;45901;47.600;9.890;2023-06-22T02:41:47;7.53;;;4.67;;
60030;SDS011;45901;47.600;9.890;2023-06-22T02:44:14;10.30;;;4.67;;
60030;SDS011;45901;47.600;9.890;2023-06-22T02:46:41;10.07;;;4.63;;
60030;SDS011;45901;47.600;9.890;2023-06-22T02:49:09;15.43;;;5.20;;
60030;SDS011;45901;47.600;9.890;2023-06-22T02:51:38;10.17;;;4.73;;
60030;SDS011;45901;47.600;9.890;2023-06-22T02:54:12;11.93;;;4.83;;
60030;SDS011;45901;47.600;9.890;2023-06-22T02:56:39;12.30;;;4.90;;
60030;SDS011;45901;47.600;9.890;2023-06-22T02:59:08;9.87;;;4.43;;
60030;SDS011;45901;47.600;9.890;2023-06-22T03:01:36;11.63;;;4.10;;
60030;SDS011;45901;47.600;9.890;2023-06-22T03:04:08;11.50;;;4.60;;
60030;SDS011;45901;47.600;9.890;2023-06-22T03:06:37;11.40;;;4.73;;
60030;SDS011;45901;47.600;9.890;2023-06-22T03:09:05;10.40;;;5.03;;
60030;SDS011;45901;47.600;9.890;2023-06-22T03:11:33;9.80;;;4.60;;
60030;SDS011;45901;47.600;9.890;2023-06-22T03:14:01;9.13;;;4.40;;
60030;SDS011;45901;47.600;9.890;2023-06-22T03:16:28;10.17;;;4.13;;
60030;SDS011;45901;47.600;9.890;2023-06-22T03:18:55;9.43;;;4.87;;
60030;SDS011;45901;47.600;9.890;2023-06-22T03:21:22;10.33;;;4.57;;
60030;SDS011;45901;47.600;9.890;2023-06-22T03:23:51;7.83;;;4.03;;
60030;SDS011;45901;47.600;9.890;2023-06-22T03:26:18;14.17;;;4.80;;
60030;SDS011;45901;47.600;9.890;2023-06-22T03:28:46;15.13;;;5.00;;
60030;SDS011;45901;47.600;9.890;2023-06-22T03:31:13;12.93;;;4.87;;
60030;SDS011;45901;47.600;9.890;2023-06-22T03:33:40;8.67;;;4.70;;
60030;SDS011;45901;47.600;9.890;2023-06-22T03:36:07;11.47;;;6.20;;
60030;SDS011;45901;47.600;9.890;2023-06-22T03:38:34;9.87;;;4.67;;
60030;SDS011;45901;47.600;9.890;2023-06-22T03:41:03;8.37;;;4.83;;
60030;SDS011;45901;47.600;9.890;2023-06-22T03:43:30;15.87;;;5.37;;
60030;SDS011;45901;47.600;9.890;2023-06-22T03:45:57;11.40;;;5.30;;
60030;SDS011;45901;47.600;9.890;2023-06-22T03:48:24;18.37;;;5.03;;
60030;SDS011;45901;47.600;9.890;2023-06-22T03:50:51;12.40;;;5.10;;
60030;SDS011;45901;47.600;9.890;2023-06-22T03:53:19;14.03;;;5.53;;
60030;SDS011;45901;47.600;9.890;2023-06-22T03:55:49;11.10;;;5.23;;
60030;SDS011;45901;47.600;9.890;2023-06-22T03:58:19;12.63;;;5.03;;
60030;SDS011;45901;47.600;9.890;2023-06-22T04:00:48;17.87;;;5.50;;
60030;SDS011;45901;47.600;9.890;2023-06-22T04:03:16;13.40;;;5.83;;
60030;SDS011;45901;47.600;9.890;2023-06-22T04:05:44;12.97;;;5.10;;
60030;SDS011;45901;47.600;9.890;2023-06-22T04:08:11;13.90;;;5.23;;
60030;SDS011;45901;47.600;9.890;2023-06-22T04:10:40;13.93;;;5.20;;
60030;SDS011;45901;47.600;9.890;2023-06-22T04:13:07;15.83;;;5.33;;
60030;SDS011;45901;47.600;9.890;2023-06-22T04:15:35;14.00;;;5.23;;
60030;SDS011;45901;47.600;9.890;2023-06-22T04:18:03;13.60;;;4.87;;
60030;SDS011;45901;47.600;9.890;2023-06-22T04:20:31;14.27;;;5.10;;
60030;SDS011;45901;47.600;9.890;2023-06-22T04:22:58;11.57;;;4.83;;
60030;SDS011;45901;47.600;9.890;2023-06-22T04:25:25;17.10;;;5.87;;
60030;SDS011;45901;47.600;9.890;2023-06-22T04:27:53;15.03;;;5.20;;
60030;SDS011;45901;47.600;9.890;2023-06-22T04:30:20;12.90;;;6.30;;
60030;SDS011;45901;47.600;9.890;2023-06-22T04:32:48;17.80;;;5.67;;
60030;SDS011;45901;47.600;9.890;2023-06-22T04:35:21;15.67;;;6.20;;
60030;SDS011;45901;47.600;9.890;2023-06-22T04:37:48;14.67;;;5.57;;
60030;SDS011;45901;47.600;9.890;2023-06-22T04:40:20;12.33;;;5.23;;
60030;SDS011;45901;47.600;9.890;2023-06-22T04:42:48;17.80;;;5.57;;
60030;SDS011;45901;47.600;9.890;2023-06-22T04:45:19;12.43;;;5.30;;
60030;SDS011;45901;47.600;9.890;2023-06-22T04:47:48;12.93;;;5.20;;
60030;SDS011;45901;47.600;9.890;2023-06-22T04:50:15;16.60;;;5.83;;
60030;SDS011;45901;47.600;9.890;2023-06-22T04:52:46;11.30;;;4.70;;
60030;SDS011;45901;47.600;9.890;2023-06-22T04:55:13;14.57;;;5.27;;
60030;SDS011;45901;47.600;9.890;2023-06-22T04:57:43;19.80;;;5.70;;
60030;SDS011;45901;47.600;9.890;2023-06-22T05:00:14;13.60;;;4.70;;
60030;SDS011;45901;47.600;9.890;2023-06-22T05:02:43;17.83;;;5.60;;
60030;SDS011;45901;47.600;9.890;2023-06-22T05:05:13;13.37;;;5.30;;
60030;SDS011;45901;47.600;9.890;2023-06-22T05:07:42;16.00;;;5.50;;
60030;SDS011;45901;47.600;9.890;2023-06-22T05:10:10;15.10;;;5.70;;
60030;SDS011;45901;47.600;9.890;2023-06-22T05:12:38;12.80;;;5.80;;
60030;SDS011;45901;47.600;9.890;2023-06-22T05:15:07;15.93;;;5.63;;
60030;SDS011;45901;47.600;9.890;2023-06-22T05:17:35;16.07;;;5.43;;
60030;SDS011;45901;47.600;9.890;2023-06-22T05:20:06;13.20;;;5.13;;
60030;SDS011;45901;47.600;9.890;2023-06-22T05:22:36;14.90;;;5.57;;
60030;SDS011;45901;47.600;9.890;2023-06-22T05:25:05;21.27;;;5.90;;
60030;SDS011;45901;47.600;9.890;2023-06-22T05:27:35;14.00;;;5.33;;
60030;SDS011;45901;47.600;9.890;2023-06-22T05:30:05;17.40;;;5.03;;
60030;SDS011;45901;47.600;9.890;2023-06-22T05:32:33;16.67;;;5.90;;
60030;SDS011;45901;47.600;9.890;2023-06-22T05:35:01;17.80;;;5.00;;
60030;SDS011;45901;47.600;9.890;2023-06-22T05:37:28;18.50;;;5.97;;
60030;SDS011;45901;47.600;9.890;2023-06-22T05:39:57;15.07;;;5.03;;
60030;SDS011;45901;47.600;9.890;2023-06-22T05:42:25;14.07;;;5.40;;
60030;SDS011;45901;47.600;9.890;2023-06-22T05:44:52;11.10;;;5.00;;
60030;SDS011;45901;47.600;9.890;2023-06-22T05:47:19;17.07;;;4.77;;
60030;SDS011;45901;47.600;9.890;2023-06-22T05:49:48;14.30;;;5.47;;
60030;SDS011;45901;47.600;9.890;2023-06-22T05:52:15;10.53;;;5.67;;
60030;SDS011;45901;47.600;9.890;2023-06-22T05:54:42;15.33;;;6.83;;
60030;SDS011;45901;47.600;9.890;2023-06-22T05:57:11;12.80;;;5.67;;
60030;SDS011;45901;47.600;9.890;2023-06-22T05:59:39;31.17;;;7.60;;
60030;SDS011;45901;47.600;9.890;2023-06-22T06:02:06;18.10;;;6.20;;
60030;SDS011;45901;47.600;9.890;2023-06-22T06:04:33;17.27;;;6.23;;
60030;SDS011;45901;47.600;9.890;2023-06-22T06:07:00;17.57;;;5.73;;
60030;SDS011;45901;47.600;9.890;2023-06-22T06:09:28;19.87;;;6.00;;
60030;SDS011;45901;47.600;9.890;2023-06-22T06:11:55;11.23;;;6.03;;
60030;SDS011;45901;47.600;9.890;2023-06-22T06:14:24;17.47;;;6.13;;
60030;SDS011;45901;47.600;9.890;2023-06-22T06:16:51;15.57;;;8.07;;
60030;SDS011;45901;47.600;9.890;2023-06-22T06:19:19;12.23;;;6.50;;
60030;SDS011;45901;47.600;9.890;2023-06-22T06:21:46;17.07;;;6.57;;
60030;SDS011;45901;47.600;9.890;2023-06-22T06:24:14;14.53;;;5.67;;
60030;SDS011;45901;47.600;9.890;2023-06-22T06:26:42;15.00;;;5.40;;
60030;SDS011;45901;47.600;9.890;2023-06-22T06:29:09;10.67;;;5.00;;
60030;SDS011;45901;47.600;9.890;2023-06-22T06:31:37;11.60;;;5.90;;
60030;SDS011;45901;47.600;9.890;2023-06-22T06:34:04;15.43;;;5.17;;
60030;SDS011;45901;47.600;9.890;2023-06-22T06:36:32;16.07;;;4.97;;
60030;SDS011;45901;47.600;9.890;2023-06-22T06:38:59;14.13;;;4.97;;
60030;SDS011;45901;47.600;9.890;2023-06-22T06:41:26;13.47;;;5.30;;
60030;SDS011;45901;47.600;9.890;2023-06-22T06:43:53;11.70;;;5.47;;
60030;SDS011;45901;47.600;9.890;2023-06-22T06:46:20;14.40;;;5.80;;
60030;SDS011;45901;47.600;9.890;2023-06-22T06:48:49;12.27;;;5.63;;
60030;SDS011;45901;47.600;9.890;2023-06-22T06:51:16;17.80;;;5.73;;
60030;SDS011;45901;47.600;9.890;2023-06-22T06:53:43;14.13;;;4.23;;
60030;SDS011;45901;47.600;9.890;2023-06-22T06:56:13;14.87;;;5.30;;
60030;SDS011;45901;47.600;9.890;2023-06-22T06:58:40;17.80;;;5.33;;
60030;SDS011;45901;47.600;9.890;2023-06-22T07:01:10;15.77;;;5.83;;
60030;SDS011;45901;47.600;9.890;2023-06-22T07:03:37;14.83;;;5.60;;
60030;SDS011;45901;47.600;9.890;2023-06-22T07:06:06;10.40;;;5.00;;
60030;SDS011;45901;47.600;9.890;2023-06-22T07:08:34;17.13;;;5.20;;
60030;SDS011;45901;47.600;9.890;2023-06-22T07:11:02;12.27;;;5.03;;
60030;SDS011;45901;47.600;9.890;2023-06-22T07:13:29;15.80;;;4.93;;
60030;SDS011;45901;47.600;9.890;2023-06-22T07:15:56;15.83;;;4.50;;
60030;SDS011;45901;47.600;9.890;2023-06-22T07:18:24;10.77;;;4.67;;
60030;SDS011;45901;47.600;9.890;2023-06-22T07:20:51;14.87;;;4.93;;
60030;SDS011;45901;47.600;9.890;2023-06-22T07:23:20;20.03;;;4.87;;
60030;SDS011;45901;47.600;9.890;2023-06-22T07:25:47;18.65;;;5.80;;
60030;SDS011;45901;47.600;9.890;2023-06-22T07:28:15;17.43;;;5.63;;
60030;SDS011;45901;47.600;9.890;2023-06-22T07:30:42;14.43;;;5.27;;
60030;SDS011;45901;47.600;9.890;2023-06-22T07:33:09;12.73;;;4.53;;
60030;SDS011;45901;47.600;9.890;2023-06-22T07:35:38;16.75;;;4.90;;
60030;SDS011;45901;47.600;9.890;2023-06-22T07:38:05;15.00;;;4.60;;
60030;SDS011;45901;47.600;9.890;2023-06-22T07:40:35;14.52;;;4.25;;
60030;SDS011;45901;47.600;9.890;2023-06-22T07:43:03;15.07;;;4.43;;
60030;SDS011;45901;47.600;9.890;2023-06-22T07:45:30;22.70;;;5.05;;
60030;SDS011;45901;47.600;9.890;2023-06-22T07:48:00;15.32;;;4.68;;
60030;SDS011;45901;47.600;9.890;2023-06-22T07:50:27;17.08;;;5.30;;
60030;SDS011;45901;47.600;9.890;2023-06-22T07:52:54;14.48;;;4.95;;
60030;SDS011;45901;47.600;9.890;2023-06-22T07:55:21;8.98;;;4.45;;
60030;SDS011;45901;47.600;9.890;2023-06-22T07:57:50;14.73;;;5.55;;
60030;SDS011;45901;47.600;9.890;2023-06-22T08:00:17;14.35;;;5.45;;
60030;SDS011;45901;47.600;9.890;2023-06-22T08:02:46;14.38;;;4.53;;
60030;SDS011;45901;47.600;9.890;2023-06-22T08:05:14;15.73;;;5.28;;
60030;SDS011;45901;47.600;9.890;2023-06-22T08:07:42;15.80;;;5.00;;
60030;SDS011;45901;47.600;9.890;2023-06-22T08:10:10;23.48;;;5.50;;
60030;SDS011;45901;47.600;9.890;2023-06-22T08:12:38;17.67;;;4.28;;
60030;SDS011;45901;47.600;9.890;2023-06-22T08:15:08;12.95;;;4.57;;
60030;SDS011;45901;47.600;9.890;2023-06-22T08:17:36;17.60;;;5.53;;
60030;SDS011;45901;47.600;9.890;2023-06-22T08:20:03;16.65;;;4.25;;
60030;SDS011;45901;47.600;9.890;2023-06-22T08:22:34;18.95;;;4.60;;
60030;SDS011;45901;47.600;9.890;2023-06-22T08:25:02;11.57;;;4.55;;
60030;SDS011;45901;47.600;9.890;2023-06-22T08:27:31;23.80;;;5.18;;
60030;SDS011;45901;47.600;9.890;2023-06-22T08:29:58;22.27;;;5.72;;
60030;SDS011;45901;47.600;9.890;2023-06-22T08:32:27;26.25;;;5.80;;
60030;SDS011;45901;47.600;9.890;2023-06-22T08:34:55;20.58;;;5.03;;
60030;SDS011;45901;47.600;9.890;2023-06-22T08:37:23;16.00;;;4.55;;
60030;SDS011;45901;47.600;9.890;2023-06-22T08:39:55;16.70;;;5.07;;
60030;SDS011;45901;47.600;9.890;2023-06-22T08:42:23;18.35;;;4.47;;
60030;SDS011;45901;47.600;9.890;2023-06-22T08:44:50;13.43;;;4.28;;
60030;SDS011;45901;47.600;9.890;2023-06-22T08:47:18;18.67;;;4.60;;
60030;SDS011;45901;47.600;9.890;2023-06-22T08:49:47;15.20;;;4.45;;
60030;SDS011;45901;47.600;9.890;2023-06-22T08:52:15;21.38;;;5.68;;
60030;SDS011;45901;47.600;9.890;2023-06-22T08:54:43;16.40;;;4.20;;
60030;SDS011;45901;47.600;9.890;2023-06-22T08:57:10;12.93;;;4.82;;
60030;SDS011;45901;47.600;9.890;2023-06-22T08:59:38;22.67;;;6.60;;
60030;SDS011;45901;47.600;9.890;2023-06-22T09:02:05;15.82;;;6.80;;
60030;SDS011;45901;47.600;9.890;2023-06-22T09:04:32;20.13;;;8.05;;
60030;SDS011;45901;47.600;9.890;2023-06-22T09:07:01;19.65;;;8.32;;
60030;SDS011;45901;47.600;9.890;2023-06-22T09:09:29;22.15;;;10.43;;
60030;SDS011;45901;47.600;9.890;2023-06-22T09:11:56;18.42;;;9.52;;
60030;SDS011;45901;47.600;9.890;2023-06-22T09:14:23;22.00;;;10.70;;
60030;SDS011;45901;47.600;9.890;2023-06-22T09:16:51;22.23;;;9.73;;
60030;SDS011;45901;47.600;9.890;2023-06-22T09:19:18;17.58;;;9.43;;
60030;SDS011;45901;47.600;9.890;2023-06-22T09:21:45;17.58;;;10.38;;
60030;SDS011;45901;47.600;9.890;2023-06-22T09:24:14;23.60;;;10.40;;
60030;SDS011;45901;47.600;9.890;2023-06-22T09:26:41;21.77;;;10.77;;
60030;SDS011;45901;47.600;9.890;2023-06-22T09:29:08;20.40;;;10.43;;
60030;SDS011;45901;47.600;9.890;2023-06-22T09:31:35;19.00;;;10.67;;
60030;SDS011;45901;47.600;9.890;2023-06-22T09:34:02;19.67;;;9.97;;
60030;SDS011;45901;47.600;9.890;2023-06-22T09:36:30;16.60;;;10.30;;
60030;SDS011;45901;47.600;9.890;2023-06-22T09:38:57;26.07;;;10.83;;
60030;SDS011;45901;47.600;9.890;2023-06-22T09:41:32;23.67;;;11.63;;
60030;SDS011;45901;47.600;9.890;2023-06-22T09:43:59;22.27;;;11.73;;
60030;SDS011;45901;47.600;9.890;2023-06-22T09:46:26;20.03;;;11.43;;
60030;SDS011;45901;47.600;9.890;2023-06-22T09:48:53;18.87;;;11.50;;
60030;SDS011;45901;47.600;9.890;2023-06-22T09:51:22;18.93;;;12.10;;
60030;SDS011;45901;47.600;9.890;2023-06-22T09:53:49;25.20;;;12.03;;
60030;SDS011;45901;47.600;9.890;2023-06-22T09:56:17;21.53;;;12.37;;
60030;SDS011;45901;47.600;9.890;2023-06-22T09:58:45;20.23;;;10.20;;
60030;SDS011;45901;47.600;9.890;2023-06-22T10:01:15;24.93;;;11.37;;
60030;SDS011;45901;47.600;9.890;2023-06-22T10:03:42;22.57;;;11.37;;
60030;SDS011;45901;47.600;9.890;2023-06-22T10:06:10;21.37;;;10.50;;
60030;SDS011;45901;47.600;9.890;2023-06-22T10:08:37;19.93;;;9.27;;
60030;SDS011;45901;47.600;9.890;2023-06-22T10:11:08;25.23;;;9.93;;
60030;SDS011;45901;47.600;9.890;2023-06-22T10:13:36;18.40;;;9.00;;
60030;SDS011;45901;47.600;9.890;2023-06-22T10:16:04;17.57;;;9.30;;
60030;SDS011;45901;47.600;9.890;2023-06-22T10:18:32;21.77;;;8.20;;
60030;SDS011;45901;47.600;9.890;2023-06-22T10:20:59;16.85;;;8.60;;
60030;SDS011;45901;47.600;9.890;2023-06-22T10:23:26;18.23;;;8.32;;
60030;SDS011;45901;47.600;9.890;2023-06-22T10:25:54;18.67;;;7.60;;
60030;SDS011;45901;47.600;9.890;2023-06-22T10:28:23;16.90;;;7.75;;
60030;SDS011;45901;47.600;9.890;2023-06-22T10:30:50;14.45;;;7.03;;
60030;SDS011;45901;47.600;9.890;2023-06-22T10:33:18;15.48;;;6.90;;
60030;SDS011;45901;47.600;9.890;2023-06-22T10:35:46;17.77;;;7.07;;
60030;SDS011;45901;47.600;9.890;2023-06-22T10:38:13;17.30;;;5.78;;
60030;SDS011;45901;47.600;9.890;2023-06-22T10:40:40;17.92;;;6.85;;
60030;SDS011;45901;47.600;9.890;2023-06-22T10:43:07;15.07;;;5.53;;
60030;SDS011;45901;47.600;9.890;2023-06-22T10:45:35;16.67;;;6.20;;
60030;SDS011;45901;47.600;9.890;2023-06-22T10:48:02;18.38;;;6.18;;
60030;SDS011;45901;47.600;9.890;2023-06-22T10:50:31;16.08;;;6.30;;
60030;SDS011;45901;47.600;9.890;2023-06-22T10:52:58;17.65;;;4.97;;
60030;SDS011;45901;47.600;9.890;2023-06-22T10:55:26;20.40;;;5.18;;
60030;SDS011;45901;47.600;9.890;2023-06-22T10:57:53;17.10;;;5.32;;
60030;SDS011;45901;47.600;9.890;2023-06-22T11:00:21;10.95;;;5.43;;
60030;SDS011;45901;47.600;9.890;2023-06-22T11:02:48;16.23;;;5.20;;
60030;SDS011;45901;47.600;9.890;2023-06-22T11:05:15;13.32;;;4.68;;
60030;SDS011;45901;47.600;9.890;2023-06-22T11:07:44;21.02;;;5.45;;
60030;SDS011;45901;47.600;9.890;2023-06-22T11:10:11;15.18;;;4.90;;
60030;SDS011;45901;47.600;9.890;2023-06-22T11:12:39;16.85;;;5.47;;
60030;SDS011;45901;47.600;9.890;2023-06-22T11:15:08;16.17;;;5.57;;
60030;SDS011;45901;47.600;9.890;2023-06-22T11:17:35;17.33;;;4.50;;
60030;SDS011;45901;47.600;9.890;2023-06-22T11:20:03;16.10;;;5.30;;
60030;SDS011;45901;47.600;9.890;2023-06-22T11:22:35;14.48;;;4.97;;
60030;SDS011;45901;47.600;9.890;2023-06-22T11:25:06;15.45;;;4.95;;
60030;SDS011;45901;47.600;9.890;2023-06-22T11:27:34;21.55;;;4.55;;
60030;SDS011;45901;47.600;9.890;2023-06-22T11:30:01;19.88;;;5.28;;
60030;SDS011;45901;47.600;9.890;2023-06-22T11:32:29;20.85;;;5.90;;
60030;SDS011;45901;47.600;9.890;2023-06-22T11:34:56;14.77;;;5.13;;
60030;SDS011;45901;47.600;9.890;2023-06-22T11:37:23;15.70;;;5.38;;
60030;SDS011;45901;47.600;9.890;2023-06-22T11:39:51;14.55;;;5.35;;
60030;SDS011;45901;47.600;9.890;2023-06-22T11:42:21;13.55;;;5.00;;
60030;SDS011;45901;47.600;9.890;2023-06-22T11:44:50;17.48;;;6.20;;
60030;SDS011;45901;47.600;9.890;2023-06-22T11:47:17;13.35;;;5.65;;
60030;SDS011;45901;47.600;9.890;2023-06-22T11:49:45;16.80;;;5.07;;
60030;SDS011;45901;47.600;9.890;2023-06-22T11:52:12;14.13;;;5.28;;
60030;SDS011;45901;47.600;9.890;2023-06-22T11:54:39;17.75;;;5.88;;
60030;SDS011;45901;47.600;9.890;2023-06-22T11:57:06;15.38;;;5.53;;
60030;SDS011;45901;47.600;9.890;2023-06-22T11:59:35;13.13;;;4.82;;
60030;SDS011;45901;47.600;9.890;2023-06-22T12:02:02;16.83;;;6.25;;
60030;SDS011;45901;47.600;9.890;2023-06-22T12:04:31;15.60;;;5.90;;
60030;SDS011;45901;47.600;9.890;2023-06-22T12:06:58;18.45;;;5.25;;
60030;SDS011;45901;47.600;9.890;2023-06-22T12:09:25;14.95;;;4.85;;
60030;SDS011;45901;47.600;9.890;2023-06-22T12:11:52;21.63;;;5.47;;
60030;SDS011;45901;47.600;9.890;2023-06-22T12:14:19;18.15;;;5.18;;
60030;SDS011;45901;47.600;9.890;2023-06-22T12:16:49;17.80;;;4.32;;
60030;SDS011;45901;47.600;9.890;2023-06-22T12:19:16;24.58;;;5.10;;
60030;SDS011;45901;47.600;9.890;2023-06-22T12:21:43;15.35;;;4.78;;
60030;SDS011;45901;47.600;9.890;2023-06-22T12:24:11;20.73;;;5.47;;
60030;SDS011;45901;47.600;9.890;2023-06-22T12:26:38;15.75;;;5.10;;
60030;SDS011;45901;47.600;9.890;2023-06-22T12:29:05;16.77;;;4.95;;
60030;SDS011;45901;47.600;9.890;2023-06-22T12:31:32;15.55;;;4.90;;
60030;SDS011;45901;47.600;9.890;2023-06-22T12:34:01;17.55;;;5.68;;
60030;SDS011;45901;47.600;9.890;2023-06-22T12:36:28;14.93;;;5.05;;
60030;SDS011;45901;47.600;9.890;2023-06-22T12:38:55;22.38;;;5.97;;
60030;SDS011;45901;47.600;9.890;2023-06-22T12:41:23;17.35;;;5.38;;
60030;SDS011;45901;47.600;9.890;2023-06-22T12:43:50;15.77;;;5.40;;
60030;SDS011;45901;47.600;9.890;2023-06-22T12:46:17;14.60;;;4.78;;
60030;SDS011;45901;47.600;9.890;2023-06-22T12:48:44;13.30;;;4.93;;
60030;SDS011;45901;47.600;9.890;2023-06-22T12:51:19;10.98;;;4.45;;
60030;SDS011;45901;47.600;9.890;2023-06-22T12:53:48;14.48;;;5.03;;
60030;SDS011;45901;47.600;9.890;2023-06-22T12:56:15;19.92;;;5.32;;
60030;SDS011;45901;47.600;9.890;2023-06-22T12:58:42;19.65;;;6.00;;
60030;SDS011;45901;47.600;9.890;2023-06-22T13:01:10;16.65;;;5.65;;
60030;SDS011;45901;47.600;9.890;2023-06-22T13:03:37;16.83;;;5.07;;
60030;SDS011;45901;47.600;9.890;2023-06-22T13:06:05;13.23;;;4.80;;
60030;SDS011;45901;47.600;9.890;2023-06-22T13:08:33;15.98;;;5.30;;
60030;SDS011;45901;47.600;9.890;2023-06-22T13:11:01;15.82;;;4.95;;
60030;SDS011;45901;47.600;9.890;2023-06-22T13:13:28;18.88;;;5.30;;
60030;SDS011;45901;47.600;9.890;2023-06-22T13:15:55;19.05;;;5.60;;
60030;SDS011;45901;47.600;9.890;2023-06-22T13:18:22;17.63;;;5.55;;
60030;SDS011;45901;47.600;9.890;2023-06-22T13:20:49;21.73;;;5.68;;
60030;SDS011;45901;47.600;9.890;2023-06-22T13:23:19;24.08;;;5.20;;
60030;SDS011;45901;47.600;9.890;2023-06-22T13:25:48;19.63;;;5.30;;
60030;SDS011;45901;47.600;9.890;2023-06-22T13:28:15;18.67;;;5.03;;
60030;SDS011;45901;47.600;9.890;2023-06-22T13:30:42;22.42;;;5.60;;
60030;SDS011;45901;47.600;9.890;2023-06-22T13:33:12;16.23;;;5.55;;
60030;SDS011;45901;47.600;9.890;2023-06-22T13:35:40;17.95;;;5.97;;
60030;SDS011;45901;47.600;9.890;2023-06-22T13:38:07;17.67;;;5.47;;
60030;SDS011;45901;47.600;9.890;2023-06-22T13:40:35;14.98;;;5.35;;
60030;SDS011;45901;47.600;9.890;2023-06-22T13:43:04;12.48;;;4.60;;
60030;SDS011;45901;47.600;9.890;2023-06-22T13:45:32;13.80;;;4.80;;
60030;SDS011;45901;47.600;9.890;2023-06-22T13:48:05;26.20;;;5.60;;
60030;SDS011;45901;47.600;9.890;2023-06-22T13:50:32;21.30;;;4.93;;
60030;SDS011;45901;47.600;9.890;2023-06-22T13:52:59;22.25;;;5.68;;
60030;SDS011;45901;47.600;9.890;2023-06-22T13:55:27;16.80;;;5.45;;
60030;SDS011;45901;47.600;9.890;2023-06-22T13:57:54;17.08;;;5.18;;
60030;SDS011;45901;47.600;9.890;2023-06-22T14:00:22;17.58;;;4.57;;
60030;SDS011;45901;47.600;9.890;2023-06-22T14:02:49;16.13;;;5.47;;
60030;SDS011;45901;47.600;9.890;2023-06-22T14:05:17;21.23;;;6.07;;
60030;SDS011;45901;47.600;9.890;2023-06-22T14:07:44;14.60;;;5.72;;
60030;SDS011;45901;47.600;9.890;2023-06-22T14:10:11;20.63;;;5.93;;
60030;SDS011;45901;47.600;9.890;2023-06-22T14:12:39;13.73;;;5.20;;
60030;SDS011;45901;47.600;9.890;2023-06-22T14:15:06;16.42;;;5.80;;
60030;SDS011;45901;47.600;9.890;2023-06-22T14:17:35;15.57;;;5.85;;
60030;SDS011;45901;47.600;9.890;2023-06-22T14:20:02;16.15;;;5.90;;
60030;SDS011;45901;47.600;9.890;2023-06-22T14:22:33;18.38;;;5.53;;
60030;SDS011;45901;47.600;9.890;2023-06-22T14:25:01;22.08;;;5.40;;
60030;SDS011;45901;47.600;9.890;2023-06-22T14:27:28;11.38;;;5.15;;
60030;SDS011;45901;47.600;9.890;2023-06-22T14:29:55;13.60;;;5.80;;
60030;SDS011;45901;47.600;9.890;2023-06-22T14:32:23;12.88;;;5.57;;
60030;SDS011;45901;47.600;9.890;2023-06-22T14:34:52;21.35;;;5.68;;
60030;SDS011;45901;47.600;9.890;2023-06-22T14:37:19;14.63;;;5.57;;
60030;SDS011;45901;47.600;9.890;2023-06-22T14:39:46;23.20;;;5.93;;